Time;durP1;ratioP1;P1;durP2;ratioP2;P2;SDS_P1;SDS_P2;PMS_P1;PMS_P2;Temp;Humidity;BMP_temperature;BMP_pressure;BME280_temperature;BME280_humidity;BME280_pressure;Samples;Min_cycle;Max_cycle;Signal;HPM_P1;HPM_P2
2022/02/27 00:02:02;;;;;;;1.37;1.23;;;1.60;99.90;;;;;;5008912;28;20219;-90
2022/02/27 00:04:28;;;;;;;5.03;1.63;;;1.80;99.90;;;;;;5026104;28;20326;-89
2022/02/27 00:06:54;;;;;;;0.80;0.80;;;1.80;99.90;;;;;;5025677;28;20975;-90
2022/02/27 00:09:20;;;;;;;0.97;0.93;;;1.70;99.90;;;;;;5033076;28;20213;-90
2022/02/27 00:11:48;;;;;;;1.93;1.33;;;1.80;99.90;;;;;;5025325;28;20700;-90
2022/02/27 00:14:14;;;;;;;1.87;1.77;;;1.80;99.90;;;;;;5017527;28;20231;-89
2022/02/27 00:16:40;;;;;;;1.33;1.33;;;1.90;99.90;;;;;;5016589;28;20227;-89
2022/02/27 00:19:06;;;;;;;0.60;0.60;;;1.90;99.90;;;;;;5015889;28;20215;-90
2022/02/27 00:21:32;;;;;;;1.70;1.23;;;2.00;99.90;;;;;;5017642;28;20227;-88
2022/02/27 00:23:58;;;;;;;1.13;1.07;;;2.00;99.90;;;;;;5014145;28;20665;-90
2022/02/27 00:26:23;;;;;;;1.63;1.40;;;2.10;99.90;;;;;;5007438;28;20630;-90
2022/02/27 00:28:49;;;;;;;1.10;1.10;;;2.00;99.90;;;;;;5016383;28;20214;-88
2022/02/27 00:31:15;;;;;;;4.50;1.57;;;2.10;99.90;;;;;;5014674;28;20719;-89
2022/02/27 00:33:40;;;;;;;2.47;2.27;;;2.10;99.90;;;;;;5007021;28;20226;-88
2022/02/27 00:36:06;;;;;;;0.50;0.50;;;2.00;99.90;;;;;;4982948;28;20194;-86
2022/02/27 00:38:32;;;;;;;0.73;0.63;;;1.90;99.90;;;;;;4985379;28;20294;-86
2022/02/27 00:40:57;;;;;;;1.57;1.47;;;1.90;99.90;;;;;;5017972;28;20245;-90
2022/02/27 00:43:23;;;;;;;1.03;0.97;;;1.80;99.90;;;;;;5014138;28;20358;-88
2022/02/27 00:45:49;;;;;;;1.23;1.23;;;1.70;99.90;;;;;;4982893;28;21156;-90
2022/02/27 00:48:15;;;;;;;2.03;1.27;;;1.60;99.90;;;;;;4983344;28;20281;-88
2022/02/27 00:50:41;;;;;;;1.77;1.67;;;1.60;99.90;;;;;;5016117;28;20199;-90
2022/02/27 00:53:08;;;;;;;0.60;0.60;;;1.50;99.90;;;;;;4999048;28;20221;-89
2022/02/27 00:55:34;;;;;;;2.00;1.50;;;1.50;99.90;;;;;;4999037;28;20685;-88
2022/02/27 00:58:01;;;;;;;0.60;0.60;;;1.40;99.90;;;;;;5016578;28;20222;-88
2022/02/27 01:00:26;;;;;;;0.70;0.70;;;1.30;99.90;;;;;;5015849;28;20230;-90
2022/02/27 01:02:52;;;;;;;2.73;1.27;;;1.40;99.90;;;;;;5018082;28;20221;-90
2022/02/27 01:05:18;;;;;;;0.50;0.50;;;1.60;99.90;;;;;;5015022;28;20227;-90
2022/02/27 01:07:43;;;;;;;9.23;1.60;;;1.50;99.90;;;;;;5030163;28;20276;-89
2022/02/27 01:10:10;;;;;;;1.17;1.07;;;1.50;99.90;;;;;;4999122;28;20223;-91
2022/02/27 01:12:36;;;;;;;1.30;1.00;;;1.50;99.90;;;;;;5005221;28;20634;-89
2022/02/27 01:15:02;;;;;;;2.00;1.87;;;1.50;99.90;;;;;;5013017;28;20191;-90
2022/02/27 01:17:28;;;;;;;0.93;0.93;;;1.40;99.90;;;;;;5013977;28;20294;-89
2022/02/27 01:19:53;;;;;;;0.93;0.87;;;1.30;99.90;;;;;;5012421;28;20215;-88
2022/02/27 01:22:19;;;;;;;0.60;0.60;;;1.40;99.90;;;;;;4994761;28;20227;-88
2022/02/27 01:24:45;;;;;;;1.70;1.60;;;1.40;99.90;;;;;;5007991;28;20238;-88
2022/02/27 01:27:10;;;;;;;0.50;0.50;;;1.40;99.90;;;;;;5014748;28;20971;-89
2022/02/27 01:29:36;;;;;;;1.60;1.50;;;1.40;99.90;;;;;;4999204;28;20218;-89
2022/02/27 01:32:02;;;;;;;1.27;1.17;;;1.50;99.90;;;;;;5017545;28;20301;-90
2022/02/27 01:34:28;;;;;;;1.70;1.23;;;1.50;99.90;;;;;;4983374;28;20229;-90
2022/02/27 01:36:54;;;;;;;1.30;1.27;;;1.50;99.90;;;;;;5012779;28;20775;-89
2022/02/27 01:39:19;;;;;;;0.60;0.60;;;1.50;99.90;;;;;;4998418;28;20715;-88
2022/02/27 01:41:45;;;;;;;8.40;1.90;;;1.60;99.90;;;;;;5015270;28;20269;-89
2022/02/27 01:44:11;;;;;;;1.70;0.90;;;1.60;99.90;;;;;;4984611;28;20335;-89
2022/02/27 01:46:59;;;;;;;8.77;1.23;;;1.60;99.90;;;;;;4996972;28;20747;-88
2022/02/27 01:49:25;;;;;;;0.70;0.70;;;1.70;99.90;;;;;;5014427;28;20225;-90
2022/02/27 01:51:51;;;;;;;1.10;1.10;;;1.60;99.90;;;;;;5014344;28;20210;-88
2022/02/27 01:54:17;;;;;;;2.03;1.87;;;1.60;99.90;;;;;;4980614;28;20262;-91
2022/02/27 01:56:44;;;;;;;2.60;1.63;;;1.60;99.90;;;;;;4974659;28;20731;-88
2022/02/27 01:59:10;;;;;;;0.83;0.83;;;1.60;99.90;;;;;;5028548;28;20285;-90
2022/02/27 02:01:36;;;;;;;3.17;1.53;;;1.60;99.90;;;;;;5019930;28;20210;-90
2022/02/27 02:04:02;;;;;;;1.07;1.07;;;1.50;99.90;;;;;;5013730;28;20329;-88
2022/02/27 02:06:27;;;;;;;0.50;0.50;;;1.20;99.90;;;;;;5013161;28;20707;-88
2022/02/27 02:08:53;;;;;;;1.13;1.03;;;1.00;99.90;;;;;;5009141;28;20586;-88
2022/02/27 02:11:19;;;;;;;2.40;1.53;;;1.00;99.90;;;;;;5010659;28;20310;-88
2022/02/27 02:13:45;;;;;;;0.70;0.70;;;1.00;99.90;;;;;;4999596;28;20226;-88
2022/02/27 02:16:10;;;;;;;0.70;0.70;;;0.90;99.90;;;;;;5019347;28;20234;-88
2022/02/27 02:18:40;;;;;;;14.17;1.20;;;1.00;99.90;;;;;;5028222;28;21004;-88
2022/02/27 02:21:07;;;;;;;1.50;1.50;;;1.00;99.90;;;;;;5021164;28;20198;-90
2022/02/27 02:23:32;;;;;;;0.70;0.70;;;1.10;99.90;;;;;;5036759;28;20691;-90
2022/02/27 02:26:02;;;;;;;1.53;1.43;;;1.10;99.90;;;;;;5050237;28;20284;-90
2022/02/27 02:28:28;;;;;;;2.40;1.63;;;1.10;99.90;;;;;;5035199;28;20245;-90
2022/02/27 02:30:53;;;;;;;2.27;1.30;;;1.10;99.90;;;;;;5009697;28;21024;-87
2022/02/27 02:33:31;;;;;;;0.50;0.50;;;1.00;99.90;;;;;;5029323;28;20668;-88
2022/02/27 02:35:57;;;;;;;0.57;0.57;;;1.00;99.90;;;;;;5039395;28;20197;-89
2022/02/27 02:38:23;;;;;;;0.37;0.37;;;1.00;99.90;;;;;;5039093;28;20218;-89
2022/02/27 02:40:48;;;;;;;5.40;2.13;;;1.00;99.90;;;;;;5036585;28;20364;-88
2022/02/27 02:43:16;;;;;;;4.97;2.00;;;1.00;99.90;;;;;;5036426;28;20303;-89
2022/02/27 02:45:42;;;;;;;1.30;1.17;;;1.00;99.90;;;;;;5005430;28;20241;-88
2022/02/27 02:48:07;;;;;;;0.50;0.50;;;0.80;99.90;;;;;;5037085;28;20199;-89
2022/02/27 02:50:33;;;;;;;1.33;1.23;;;0.90;99.90;;;;;;5038287;28;20839;-88
2022/02/27 02:52:59;;;;;;;0.83;0.73;;;0.90;99.90;;;;;;5038877;28;20230;-88
2022/02/27 02:55:25;;;;;;;0.70;0.70;;;1.00;99.90;;;;;;5036725;28;20871;-88
2022/02/27 02:57:51;;;;;;;3.80;3.43;;;1.00;99.90;;;;;;5020355;28;20252;-88
2022/02/27 03:00:17;;;;;;;0.90;0.90;;;1.10;99.90;;;;;;5003952;28;20209;-90
2022/02/27 03:02:42;;;;;;;0.70;0.67;;;1.20;99.90;;;;;;4996899;28;20248;-90
2022/02/27 03:05:09;;;;;;;1.13;1.13;;;1.10;99.90;;;;;;5027430;28;20257;-88
2022/02/27 03:07:36;;;;;;;0.70;0.70;;;1.20;99.90;;;;;;5028891;28;20227;-88
2022/02/27 03:10:07;;;;;;;1.27;1.17;;;1.20;99.90;;;;;;5009435;28;20222;-88
2022/02/27 03:12:33;;;;;;;1.30;1.30;;;1.10;99.90;;;;;;5024396;28;20218;-88
2022/02/27 03:14:59;;;;;;;1.17;1.07;;;1.10;99.90;;;;;;5023177;28;20191;-89
2022/02/27 03:17:24;;;;;;;4.93;0.80;;;1.10;99.90;;;;;;5006821;28;20233;-87
2022/02/27 03:19:50;;;;;;;0.60;0.60;;;1.10;99.90;;;;;;4993784;28;20214;-88
2022/02/27 03:22:16;;;;;;;0.83;0.83;;;1.10;99.90;;;;;;5010964;28;20269;-88
2022/02/27 03:24:42;;;;;;;1.57;1.57;;;1.00;99.90;;;;;;5010465;28;20241;-88
2022/02/27 03:27:07;;;;;;;1.03;1.03;;;1.00;99.90;;;;;;5027414;28;20197;-88
2022/02/27 03:29:33;;;;;;;0.60;0.60;;;1.00;99.90;;;;;;5018610;28;20253;-89
2022/02/27 03:31:59;;;;;;;1.43;1.37;;;1.00;99.90;;;;;;5027216;28;20226;-88
2022/02/27 03:34:25;;;;;;;1.17;1.17;;;0.90;99.90;;;;;;5007631;28;20253;-89
2022/02/27 03:36:50;;;;;;;5.77;3.37;;;0.90;99.90;;;;;;5007042;28;20268;-88
2022/02/27 03:39:16;;;;;;;0.50;0.50;;;0.80;99.90;;;;;;5007275;28;20576;-89
2022/02/27 03:41:42;;;;;;;1.30;1.20;;;0.80;99.90;;;;;;5024891;28;22641;-88
2022/02/27 03:44:08;;;;;;;2.03;1.53;;;0.70;99.90;;;;;;5021251;28;20258;-89
2022/02/27 03:46:34;;;;;;;1.27;1.17;;;0.70;99.90;;;;;;4984136;28;20223;-88
2022/02/27 03:49:02;;;;;;;0.63;0.63;;;0.80;99.90;;;;;;4989230;28;20259;-89
2022/02/27 03:51:28;;;;;;;4.07;1.10;;;0.70;99.90;;;;;;5000466;28;20222;-89
2022/02/27 03:53:53;;;;;;;1.07;1.03;;;0.80;99.90;;;;;;5001838;28;20194;-89
2022/02/27 03:56:19;;;;;;;0.97;0.93;;;0.80;99.90;;;;;;4967827;28;20643;-88
2022/02/27 03:58:45;;;;;;;7.33;2.40;;;0.80;99.90;;;;;;4999717;28;20226;-88
2022/02/27 04:01:10;;;;;;;2.10;2.00;;;0.80;99.90;;;;;;4997579;28;20270;-89
2022/02/27 04:03:36;;;;;;;0.60;0.60;;;0.90;99.90;;;;;;5015365;28;20227;-88
2022/02/27 04:06:02;;;;;;;3.33;2.30;;;0.90;99.90;;;;;;4998696;28;20199;-88
2022/02/27 04:08:28;;;;;;;0.60;0.60;;;0.90;99.90;;;;;;5014594;28;20257;-89
2022/02/27 04:10:53;;;;;;;1.03;1.03;;;0.90;99.90;;;;;;4999925;28;20227;-88
2022/02/27 04:13:19;;;;;;;0.97;0.97;;;0.90;99.90;;;;;;5017727;28;20234;-90
2022/02/27 04:15:45;;;;;;;9.43;1.17;;;0.80;99.90;;;;;;5017432;28;20215;-88
2022/02/27 04:18:11;;;;;;;2.97;1.10;;;0.70;99.90;;;;;;5017991;28;20198;-88
2022/02/27 04:20:36;;;;;;;1.00;1.00;;;0.70;99.90;;;;;;5015144;28;21071;-90
2022/02/27 04:23:03;;;;;;;0.73;0.60;;;0.60;99.90;;;;;;5017548;28;20258;-89
2022/02/27 04:25:29;;;;;;;3.77;3.57;;;0.50;99.90;;;;;;4984351;28;20744;-89
2022/02/27 04:27:56;;;;;;;1.37;1.37;;;0.60;99.90;;;;;;4983355;28;20221;-89
2022/02/27 04:30:22;;;;;;;1.20;1.20;;;0.50;99.90;;;;;;5000216;28;20371;-88
2022/02/27 04:32:48;;;;;;;0.80;0.53;;;0.60;99.90;;;;;;5015989;28;20205;-88
2022/02/27 04:35:14;;;;;;;0.50;0.50;;;0.50;99.90;;;;;;5015275;28;20394;-89
2022/02/27 04:37:41;;;;;;;1.00;1.00;;;0.50;99.90;;;;;;4984820;28;20222;-88
2022/02/27 04:40:07;;;;;;;1.83;1.40;;;0.40;99.90;;;;;;5014927;28;21058;-89
2022/02/27 04:42:33;;;;;;;1.03;0.93;;;0.40;99.90;;;;;;5007991;28;20217;-89
2022/02/27 04:44:59;;;;;;;0.57;0.57;;;0.40;99.90;;;;;;5015041;28;20235;-89
2022/02/27 04:47:25;;;;;;;0.57;0.57;;;0.30;99.90;;;;;;4998624;28;20222;-91
2022/02/27 04:49:51;;;;;;;0.70;0.70;;;0.40;99.90;;;;;;5015832;28;21007;-90
2022/02/27 04:52:17;;;;;;;1.00;0.83;;;0.40;99.90;;;;;;4999436;28;20225;-88
2022/02/27 04:54:44;;;;;;;1.17;0.70;;;0.50;99.90;;;;;;5012583;28;20233;-89
2022/02/27 04:57:10;;;;;;;0.70;0.70;;;0.60;99.90;;;;;;5014774;28;20682;-88
2022/02/27 04:59:36;;;;;;;1.70;1.60;;;0.60;99.90;;;;;;4991982;28;20202;-89
2022/02/27 05:02:02;;;;;;;1.77;1.30;;;0.70;99.90;;;;;;5014312;28;20223;-89
2022/02/27 05:04:28;;;;;;;0.97;0.97;;;0.60;99.90;;;;;;5012993;28;20241;-89
2022/02/27 05:06:54;;;;;;;6.03;1.90;;;0.70;99.90;;;;;;4999828;28;20219;-89
2022/02/27 05:09:19;;;;;;;0.47;0.47;;;0.80;99.90;;;;;;4997456;28;20186;-90
2022/02/27 05:11:46;;;;;;;0.80;0.80;;;0.90;99.90;;;;;;4975156;28;20258;-89
2022/02/27 05:14:13;;;;;;;8.13;0.97;;;0.90;99.90;;;;;;5012654;28;20596;-89
2022/02/27 05:16:39;;;;;;;0.70;0.70;;;0.90;99.90;;;;;;5013029;28;20273;-89
2022/02/27 05:19:05;;;;;;;1.03;1.03;;;0.90;99.90;;;;;;5014468;28;20218;-89
2022/02/27 05:21:31;;;;;;;2.73;1.70;;;0.80;99.90;;;;;;4999278;28;20689;-89
2022/02/27 05:23:57;;;;;;;0.63;0.63;;;0.80;99.90;;;;;;4982135;28;21108;-88
2022/02/27 05:26:22;;;;;;;0.87;0.87;;;0.90;99.90;;;;;;5013153;28;20393;-90
2022/02/27 05:28:48;;;;;;;4.37;1.43;;;0.70;99.90;;;;;;4974629;28;20219;-89
2022/02/27 05:31:14;;;;;;;1.43;1.43;;;0.80;99.90;;;;;;4995552;28;20219;-89
2022/02/27 05:33:40;;;;;;;1.80;1.80;;;0.80;99.90;;;;;;4995852;28;20721;-87
2022/02/27 05:36:06;;;;;;;2.37;1.67;;;0.80;99.90;;;;;;5011974;28;20193;-86
2022/02/27 05:38:32;;;;;;;6.17;1.13;;;0.80;99.90;;;;;;5008725;28;20322;-88
2022/02/27 05:40:58;;;;;;;0.63;0.60;;;0.60;99.90;;;;;;5017025;28;20578;-89
2022/02/27 05:43:23;;;;;;;1.80;1.70;;;0.60;99.90;;;;;;5016651;28;20242;-90
2022/02/27 05:45:49;;;;;;;0.70;0.70;;;0.50;99.90;;;;;;4974603;28;20229;-88
2022/02/27 05:48:15;;;;;;;1.63;1.50;;;0.40;99.90;;;;;;5006121;28;20194;-89
2022/02/27 05:50:41;;;;;;;1.40;1.40;;;0.40;99.90;;;;;;4997534;28;20263;-88
2022/02/27 05:53:06;;;;;;;1.33;1.23;;;0.50;99.90;;;;;;5023122;28;20229;-88
2022/02/27 05:55:32;;;;;;;0.67;0.60;;;0.40;99.90;;;;;;4971630;28;20640;-88
2022/02/27 05:57:58;;;;;;;1.07;1.07;;;0.20;99.90;;;;;;5001756;28;20221;-89
2022/02/27 06:00:24;;;;;;;1.97;1.97;;;0.00;99.90;;;;;;5000276;28;20228;-89
2022/02/27 06:02:49;;;;;;;0.73;0.73;;;0.00;99.90;;;;;;5018070;28;20222;-89
2022/02/27 06:05:15;;;;;;;1.57;1.47;;;0.10;99.90;;;;;;5033910;28;20233;-88
2022/02/27 06:07:41;;;;;;;1.47;1.43;;;0.00;99.90;;;;;;4983102;28;20227;-89
2022/02/27 06:10:07;;;;;;;0.83;0.83;;;0.00;99.90;;;;;;5020798;28;20667;-92
2022/02/27 06:12:33;;;;;;;1.43;1.33;;;0.10;99.90;;;;;;5038843;28;20622;-89
2022/02/27 06:14:58;;;;;;;0.97;0.97;;;0.20;99.90;;;;;;5002145;28;20194;-89
2022/02/27 06:17:24;;;;;;;0.63;0.63;;;0.30;99.90;;;;;;5018966;28;20778;-91
2022/02/27 06:19:50;;;;;;;0.70;0.70;;;0.30;99.90;;;;;;5000170;28;20487;-89
2022/02/27 06:22:16;;;;;;;1.60;1.20;;;0.30;99.90;;;;;;5018299;28;20210;-90
2022/02/27 06:24:42;;;;;;;2.43;0.80;;;0.40;99.90;;;;;;5036906;28;20245;-90
2022/02/27 06:27:07;;;;;;;1.70;1.37;;;0.40;99.90;;;;;;5021325;28;20195;-86
2022/02/27 06:29:33;;;;;;;1.70;1.60;;;0.40;99.90;;;;;;5020651;28;20202;-88
2022/02/27 06:31:59;;;;;;;0.57;0.57;;;0.40;99.90;;;;;;5018105;28;20238;-88
2022/02/27 06:34:24;;;;;;;0.93;0.93;;;0.40;99.90;;;;;;5003854;28;20219;-88
2022/02/27 06:36:50;;;;;;;10.70;1.43;;;0.50;99.90;;;;;;5003372;28;20291;-88
2022/02/27 06:39:16;;;;;;;0.43;0.43;;;0.60;99.90;;;;;;5022936;28;20205;-88
2022/02/27 06:41:42;;;;;;;0.50;0.50;;;0.70;99.90;;;;;;5039515;28;20195;-88
2022/02/27 06:44:07;;;;;;;1.07;0.93;;;1.00;99.90;;;;;;5018254;28;20242;-90
2022/02/27 06:46:33;;;;;;;0.67;0.67;;;1.20;99.90;;;;;;4987432;28;20722;-88
2022/02/27 06:48:59;;;;;;;0.80;0.80;;;1.40;99.90;;;;;;5003989;28;20222;-90
2022/02/27 06:51:25;;;;;;;0.90;0.90;;;1.80;99.90;;;;;;4976035;28;20277;-90
2022/02/27 06:53:51;;;;;;;2.17;1.43;;;2.20;99.90;;;;;;4988977;28;20199;-90
2022/02/27 06:56:16;;;;;;;0.77;0.77;;;2.30;99.90;;;;;;5019485;28;20269;-90
2022/02/27 06:58:42;;;;;;;2.10;2.00;;;2.40;99.90;;;;;;5004318;28;20218;-89
2022/02/27 07:01:09;;;;;;;0.93;0.93;;;2.50;99.90;;;;;;4995690;28;20683;-90
2022/02/27 07:03:35;;;;;;;2.60;2.37;;;2.40;99.90;;;;;;5020048;28;20237;-90
2022/02/27 07:06:00;;;;;;;1.43;1.43;;;2.50;99.90;;;;;;5019355;28;20197;-90
2022/02/27 07:08:27;;;;;;;1.10;1.10;;;2.40;99.90;;;;;;5019006;28;20214;-87
2022/02/27 07:10:54;;;;;;;1.13;1.13;;;2.60;99.90;;;;;;4992875;28;20218;-87
2022/02/27 07:13:20;;;;;;;0.77;0.77;;;2.90;99.90;;;;;;4997942;28;20618;-91
2022/02/27 07:15:46;;;;;;;7.30;2.57;;;3.60;99.90;;;;;;5001269;28;20687;-90
2022/02/27 07:18:12;;;;;;;6.40;1.20;;;4.20;99.90;;;;;;5021796;28;20194;-90
2022/02/27 07:20:38;;;;;;;1.10;1.00;;;4.10;99.90;;;;;;5004701;28;20472;-90
2022/02/27 07:23:04;;;;;;;2.73;2.17;;;4.20;99.90;;;;;;4998712;28;20241;-91
2022/02/27 07:25:32;;;;;;;1.90;1.23;;;4.10;99.90;;;;;;5020515;28;20226;-89
2022/02/27 07:27:58;;;;;;;2.57;1.43;;;4.10;99.90;;;;;;5002513;28;20218;-88
2022/02/27 07:30:24;;;;;;;1.03;1.03;;;3.90;99.90;;;;;;4993241;28;20222;-91
2022/02/27 07:32:50;;;;;;;2.43;2.13;;;4.10;99.90;;;;;;5018289;28;20198;-89
2022/02/27 07:35:15;;;;;;;1.07;1.07;;;4.10;99.90;;;;;;5002785;28;20210;-90
2022/02/27 07:37:41;;;;;;;5.27;1.70;;;4.50;99.90;;;;;;5001905;28;20954;-92
2022/02/27 07:40:07;;;;;;;2.03;1.07;;;4.80;99.90;;;;;;5002980;28;20749;-91
2022/02/27 07:42:34;;;;;;;1.83;1.67;;;4.70;99.90;;;;;;5020885;28;20218;-90
2022/02/27 07:44:59;;;;;;;1.73;1.60;;;4.70;99.90;;;;;;5003623;28;20234;-91
2022/02/27 07:47:25;;;;;;;1.07;0.90;;;4.70;99.90;;;;;;5017946;28;20225;-88
2022/02/27 07:49:51;;;;;;;0.73;0.73;;;5.00;99.90;;;;;;5002285;28;20248;-88
2022/02/27 07:52:17;;;;;;;0.67;0.67;;;5.40;99.90;;;;;;5019506;28;20221;-90
2022/02/27 07:54:42;;;;;;;0.83;0.63;;;5.40;99.90;;;;;;5034583;28;20222;-88
2022/02/27 07:57:08;;;;;;;2.20;1.57;;;6.20;99.90;;;;;;4994741;28;20344;-88
2022/02/27 07:59:34;;;;;;;1.90;1.80;;;6.90;99.90;;;;;;5020482;28;20195;-89
2022/02/27 08:02:00;;;;;;;4.30;1.27;;;7.50;99.90;;;;;;5018266;28;20245;-89
2022/02/27 08:04:25;;;;;;;1.70;0.90;;;7.80;99.90;;;;;;5010704;28;20266;-85
2022/02/27 08:06:51;;;;;;;12.30;1.27;;;7.40;99.90;;;;;;4999982;28;20882;-91
2022/02/27 08:09:17;;;;;;;1.00;0.53;;;7.20;99.90;;;;;;5000264;28;20199;-89
2022/02/27 08:11:42;;;;;;;2.00;1.30;;;7.20;99.90;;;;;;5015348;28;20270;-90
2022/02/27 08:14:09;;;;;;;2.03;1.00;;;7.30;99.90;;;;;;5014559;28;20226;-89
2022/02/27 08:16:35;;;;;;;1.87;1.77;;;7.60;99.90;;;;;;5009771;28;20249;-91
2022/02/27 08:19:01;;;;;;;1.17;1.07;;;7.60;99.90;;;;;;4996115;28;20231;-92
2022/02/27 08:21:27;;;;;;;1.37;1.33;;;7.80;99.90;;;;;;5014937;28;20221;-91
2022/02/27 08:23:52;;;;;;;3.07;1.30;;;8.00;99.90;;;;;;5018588;28;20203;-91
2022/02/27 08:26:18;;;;;;;7.10;2.10;;;8.00;99.90;;;;;;5031261;28;20232;-90
2022/02/27 08:28:44;;;;;;;2.50;1.53;;;7.90;99.90;;;;;;5015737;28;20214;-89
2022/02/27 08:31:10;;;;;;;9.80;1.97;;;8.00;99.90;;;;;;5014642;28;20222;-91
2022/02/27 08:33:39;;;;;;;3.23;1.80;;;8.30;99.90;;;;;;5034356;28;20238;-91
2022/02/27 08:36:04;;;;;;;0.97;0.87;;;8.50;99.90;;;;;;5016989;28;20194;-91
2022/02/27 08:38:31;;;;;;;3.80;1.67;;;8.30;99.90;;;;;;5034250;28;20225;-91
2022/02/27 08:40:56;;;;;;;1.33;1.27;;;8.20;99.90;;;;;;5000964;28;20217;-91
2022/02/27 08:43:22;;;;;;;3.13;1.33;;;8.00;99.90;;;;;;5014907;28;20234;-91
2022/02/27 08:45:48;;;;;;;7.10;2.00;;;7.90;99.90;;;;;;5018389;28;20245;-91
2022/02/27 08:48:15;;;;;;;0.90;0.90;;;8.00;99.90;;;;;;4998467;28;20741;-90
2022/02/27 08:50:41;;;;;;;1.03;0.90;;;8.10;99.90;;;;;;5018469;28;20410;-90
2022/02/27 08:53:07;;;;;;;2.50;1.30;;;8.10;99.90;;;;;;5016052;28;20701;-90
2022/02/27 08:55:32;;;;;;;3.77;1.83;;;8.20;99.90;;;;;;5018031;28;20228;-90
2022/02/27 08:57:58;;;;;;;1.53;1.10;;;7.90;99.90;;;;;;5017948;28;20288;-93
2022/02/27 09:00:24;;;;;;;6.43;1.50;;;7.30;99.90;;;;;;4968403;28;20220;-91
2022/02/27 09:02:50;;;;;;;0.97;0.67;;;6.50;99.90;;;;;;5022042;28;20558;-92
2022/02/27 09:05:16;;;;;;;1.87;1.10;;;6.30;99.90;;;;;;4995567;28;20576;-93
2022/02/27 09:07:42;;;;;;;1.47;1.43;;;6.30;99.90;;;;;;4996182;28;20976;-92
2022/02/27 09:10:12;;;;;;;4.43;1.03;;;6.30;99.90;;;;;;5010188;28;20219;-93
2022/02/27 09:12:42;;;;;;;1.43;1.30;;;6.30;99.90;;;;;;5014457;28;20218;-92
2022/02/27 09:15:09;;;;;;;1.33;1.30;;;6.20;99.90;;;;;;5013432;28;20205;-91
2022/02/27 09:17:34;;;;;;;7.30;1.50;;;6.20;99.90;;;;;;5000166;28;20196;-91
2022/02/27 09:20:00;;;;;;;3.80;1.67;;;6.20;99.90;;;;;;5013165;28;20224;-91
2022/02/27 09:22:26;;;;;;;1.77;1.40;;;6.20;99.90;;;;;;4997028;28;20246;-92
2022/02/27 09:24:52;;;;;;;1.30;1.30;;;6.20;99.90;;;;;;4988211;28;20637;-92
2022/02/27 09:27:17;;;;;;;1.00;1.00;;;6.10;99.90;;;;;;5029758;28;20186;-91
2022/02/27 09:29:43;;;;;;;2.43;1.40;;;6.30;99.90;;;;;;5031795;28;20194;-92
2022/02/27 09:32:09;;;;;;;3.13;1.40;;;6.20;99.90;;;;;;5011044;28;20218;-91
2022/02/27 09:34:35;;;;;;;1.90;1.67;;;6.30;99.90;;;;;;4994715;28;20218;-92
2022/02/27 09:37:00;;;;;;;1.70;1.60;;;6.30;99.90;;;;;;5010267;28;21005;-92
2022/02/27 09:39:28;;;;;;;0.70;0.70;;;6.30;99.90;;;;;;5029507;28;20306;-92
2022/02/27 09:41:54;;;;;;;2.37;2.20;;;6.40;99.90;;;;;;5012080;28;20269;-92
2022/02/27 09:44:20;;;;;;;2.43;1.57;;;6.40;99.90;;;;;;4983981;28;20235;-89
2022/02/27 09:46:48;;;;;;;1.40;1.27;;;6.50;99.90;;;;;;5009459;28;20268;-91
2022/02/27 09:49:15;;;;;;;1.33;1.30;;;6.70;99.90;;;;;;5018355;28;20234;-91
2022/02/27 09:51:41;;;;;;;3.53;2.40;;;6.70;99.90;;;;;;5032561;28;20202;-90
2022/02/27 09:54:09;;;;;;;3.00;2.80;;;6.60;99.90;;;;;;5015688;28;20199;-89
2022/02/27 09:56:35;;;;;;;1.33;1.23;;;6.70;99.90;;;;;;5035333;28;20218;-91
2022/02/27 09:59:01;;;;;;;1.40;1.30;;;6.70;99.90;;;;;;5019943;28;20219;-89
2022/02/27 10:01:27;;;;;;;3.83;1.50;;;6.90;99.90;;;;;;5012042;28;20223;-89
2022/02/27 10:03:53;;;;;;;3.63;1.40;;;6.70;99.90;;;;;;5012833;28;20238;-91
2022/02/27 10:06:19;;;;;;;1.73;1.40;;;6.80;99.90;;;;;;4971766;28;20302;-90
2022/02/27 10:08:56;;;;;;;0.87;0.80;;;6.90;99.90;;;;;;5010575;28;20210;-89
2022/02/27 10:11:22;;;;;;;1.43;1.33;;;7.00;99.90;;;;;;5012910;28;20276;-90
2022/02/27 10:13:51;;;;;;;1.10;1.03;;;7.10;99.90;;;;;;5022188;28;20214;-91
2022/02/27 10:16:26;;;;;;;5.13;1.30;;;7.10;99.90;;;;;;5028916;28;20708;-89
2022/02/27 10:18:54;;;;;;;9.90;1.20;;;7.10;99.90;;;;;;5014007;28;20198;-90
2022/02/27 10:21:20;;;;;;;1.27;1.27;;;7.10;99.90;;;;;;5032561;28;20198;-91
2022/02/27 10:24:08;;;;;;;1.67;1.50;;;7.20;99.90;;;;;;5032498;28;20722;-91
2022/02/27 10:26:37;;;;;;;3.07;1.87;;;7.30;99.90;;;;;;5038670;28;20619;-91
2022/02/27 10:29:07;;;;;;;3.67;2.67;;;7.40;99.90;;;;;;5036266;28;20249;-90
2022/02/27 10:31:33;;;;;;;0.67;0.60;;;7.40;99.90;;;;;;5030847;28;20321;-91
2022/02/27 10:34:20;;;;;;;1.43;1.33;;;7.70;99.90;;;;;;5031158;28;20656;-91
2022/02/27 10:36:55;;;;;;;1.40;1.30;;;7.80;99.90;;;;;;5028665;28;20183;-89
2022/02/27 10:39:51;;;;;;;1.40;1.30;;;8.00;99.90;;;;;;5013763;28;20210;-91
2022/02/27 10:42:18;;;;;;;1.23;1.13;;;8.10;99.90;;;;;;5004691;28;20315;-90
2022/02/27 10:44:56;;;;;;;1.07;0.97;;;8.20;99.90;;;;;;5013701;28;20293;-90
2022/02/27 10:47:24;;;;;;;1.90;1.80;;;8.40;99.90;;;;;;5030753;28;20340;-89
2022/02/27 10:49:53;;;;;;;3.47;3.17;;;8.70;99.90;;;;;;5025819;28;20300;-90
2022/02/27 10:52:19;;;;;;;5.23;2.23;;;9.00;99.90;;;;;;5032183;28;20227;-92
2022/02/27 10:54:50;;;;;;;1.30;1.20;;;9.30;99.90;;;;;;5017117;28;20268;-91
2022/02/27 10:57:26;;;;;;;4.97;2.23;;;9.30;99.90;;;;;;5033808;28;20189;-90
2022/02/27 10:59:54;;;;;;;1.53;1.43;;;9.40;99.90;;;;;;5009774;28;20222;-90
2022/02/27 11:02:22;;;;;;;3.27;2.10;;;9.30;99.90;;;;;;5012080;28;20215;-90
2022/02/27 11:04:49;;;;;;;8.00;1.73;;;9.60;99.90;;;;;;5017030;28;20227;-91
2022/02/27 11:07:15;;;;;;;2.17;1.97;;;9.70;99.90;;;;;;5020565;28;20275;-91
2022/02/27 11:09:44;;;;;;;1.53;1.07;;;9.60;99.90;;;;;;5014974;28;20199;-92
2022/02/27 11:12:11;;;;;;;1.97;1.87;;;9.80;99.90;;;;;;5015994;28;21001;-88
2022/02/27 11:14:39;;;;;;;1.70;1.27;;;9.60;99.90;;;;;;5028859;28;20219;-88
2022/02/27 11:17:05;;;;;;;1.37;1.27;;;9.60;99.90;;;;;;5000343;28;20353;-88
2022/02/27 11:19:32;;;;;;;1.50;1.40;;;9.60;99.90;;;;;;5034033;28;20225;-88
2022/02/27 11:21:59;;;;;;;4.23;1.93;;;9.80;99.90;;;;;;5019726;28;20222;-91
2022/02/27 11:24:25;;;;;;;2.30;1.70;;;9.90;99.90;;;;;;5009977;28;20309;-89
2022/02/27 11:26:51;;;;;;;3.43;1.40;;;9.50;99.90;;;;;;5034628;28;20591;-87
2022/02/27 11:29:19;;;;;;;5.97;1.90;;;9.50;99.90;;;;;;5036659;28;20226;-87
2022/02/27 11:31:46;;;;;;;4.03;1.80;;;9.40;99.90;;;;;;5018191;28;20298;-90
2022/02/27 11:34:16;;;;;;;3.83;1.57;;;9.50;99.90;;;;;;5035925;28;20231;-89
2022/02/27 11:36:51;;;;;;;3.77;1.60;;;9.50;99.90;;;;;;5034475;28;20199;-88
2022/02/27 11:42:02;;;;;;;4.23;1.10;;;9.50;99.90;;;;;;5027129;28;20222;-88
2022/02/27 11:44:36;;;;;;;1.73;1.40;;;9.20;99.90;;;;;;5015669;28;20258;-87
2022/02/27 11:47:11;;;;;;;4.60;2.40;;;9.30;99.90;;;;;;4998977;28;20224;-88
2022/02/27 11:49:44;;;;;;;1.67;1.57;;;9.30;99.90;;;;;;5013684;28;20245;-90
2022/02/27 11:52:10;;;;;;;1.97;1.30;;;9.50;99.90;;;;;;5002733;28;20218;-90
2022/02/27 11:54:41;;;;;;;1.40;1.30;;;9.50;99.90;;;;;;5013839;28;20236;-90
2022/02/27 11:57:09;;;;;;;2.17;2.07;;;9.40;99.90;;;;;;5015002;28;20218;-90
2022/02/27 11:59:55;;;;;;;5.63;2.07;;;9.60;99.90;;;;;;5014085;28;20190;-90
2022/02/27 12:02:34;;;;;;;1.60;1.50;;;9.30;99.90;;;;;;5030743;28;21712;-88
2022/02/27 12:05:03;;;;;;;4.53;2.67;;;9.60;99.90;;;;;;5017606;28;20227;-90
2022/02/27 12:07:29;;;;;;;2.33;1.77;;;9.60;99.90;;;;;;4996026;28;20218;-89
2022/02/27 12:10:02;;;;;;;6.70;1.90;;;9.60;99.90;;;;;;4988149;28;20211;-91
2022/02/27 12:12:37;;;;;;;2.83;1.80;;;9.50;99.90;;;;;;5015639;28;20264;-94
2022/02/27 12:15:20;;;;;;;1.80;1.57;;;9.50;99.90;;;;;;5029873;28;20894;-92
2022/02/27 12:18:03;;;;;;;1.63;1.53;;;9.50;99.90;;;;;;5015075;28;20199;-90
2022/02/27 12:20:51;;;;;;;1.87;1.77;;;9.60;99.90;;;;;;5017396;28;20267;-91
2022/02/27 12:23:31;;;;;;;1.10;1.10;;;9.60;99.90;;;;;;5004840;28;20223;-90
2022/02/27 12:26:08;;;;;;;2.13;1.97;;;9.40;99.90;;;;;;5033081;28;20221;-90
2022/02/27 12:28:49;;;;;;;3.20;1.83;;;9.30;99.90;;;;;;5042270;28;20826;-92
2022/02/27 12:31:19;;;;;;;5.20;2.07;;;9.30;99.90;;;;;;5033588;28;20647;-92
2022/02/27 12:33:45;;;;;;;2.63;1.77;;;9.50;99.90;;;;;;5016183;28;20656;-91
2022/02/27 12:36:19;;;;;;;2.57;1.60;;;9.50;99.90;;;;;;5031071;28;20306;-92
2022/02/27 12:38:48;;;;;;;1.60;1.13;;;9.20;99.90;;;;;;5027995;28;20195;-94
2022/02/27 12:41:18;;;;;;;1.90;1.17;;;9.10;99.90;;;;;;5038158;28;20183;-92
2022/02/27 12:43:45;;;;;;;0.60;0.60;;;9.10;99.90;;;;;;5032743;28;20304;-92
2022/02/27 12:46:11;;;;;;;2.43;1.87;;;9.20;99.90;;;;;;5032825;28;20249;-91
2022/02/27 12:51:30;;;;;;;3.83;1.50;;;9.40;99.90;;;;;;5032639;28;20281;-92
2022/02/27 12:53:58;;;;;;;1.23;1.13;;;9.30;99.90;;;;;;5032030;28;20254;-92
2022/02/27 12:56:24;;;;;;;1.53;1.13;;;9.20;99.90;;;;;;5033173;28;20224;-92
2022/02/27 12:58:54;;;;;;;0.83;0.73;;;9.10;99.90;;;;;;5032741;28;20229;-94
2022/02/27 13:01:30;;;;;;;1.23;1.10;;;9.00;99.90;;;;;;5035382;28;20234;-93
2022/02/27 13:04:10;;;;;;;0.90;0.90;;;9.00;99.90;;;;;;5034501;28;20225;-92